Time;durP1;ratioP1;P1;durP2;ratioP2;P2;SDS_P1;SDS_P2;PMS_P1;PMS_P2;Temp;Humidity;BMP_temperature;BMP_pressure;BME280_temperature;BME280_humidity;BME280_pressure;Samples;Min_cycle;Max_cycle;Signal;HPM_P1;HPM_P2
2021/04/30 00:00:01;;;;;;;7.72;5.90;;;;;;;13.30;60.93;99103.30;147381;1147;104508;-78
2021/04/30 00:03:04;;;;;;;7.08;5.83;;;;;;;13.35;61.25;99095.47;147224;1147;104547;-77
2021/04/30 00:06:07;;;;;;;9.30;6.78;;;;;;;13.41;61.10;99101.87;147246;1147;104485;-77
2021/04/30 00:09:10;;;;;;;8.20;6.50;;;;;;;13.43;60.93;99101.69;147296;1147;104566;-76
2021/04/30 00:12:13;;;;;;;8.35;6.40;;;;;;;13.44;60.58;99101.49;147363;1147;104604;-77
2021/04/30 00:15:17;;;;;;;7.80;5.97;;;;;;;13.48;60.73;99099.25;147540;1147;104489;-77
2021/04/30 00:18:22;;;;;;;8.15;6.08;;;;;;;13.43;60.40;99105.19;147751;1148;104584;-77
2021/04/30 00:21:25;;;;;;;7.75;6.03;;;;;;;13.41;60.41;99109.09;147764;1147;104565;-77
2021/04/30 00:24:28;;;;;;;7.08;5.92;;;;;;;13.39;60.73;99106.62;147767;1148;104519;-78
2021/04/30 00:27:31;;;;;;;7.60;5.67;;;;;;;13.35;60.68;99118.76;147738;1147;104522;-76
2021/04/30 00:30:34;;;;;;;7.95;6.00;;;;;;;13.31;60.57;99109.47;147754;1147;104603;-80
2021/04/30 00:33:37;;;;;;;8.28;5.35;;;;;;;13.27;60.88;99106.33;147547;1147;104550;-82
2021/04/30 00:36:42;;;;;;;7.33;5.63;;;;;;;13.26;60.70;99109.20;146957;1148;104442;-84
2021/04/30 00:39:45;;;;;;;7.37;5.55;;;;;;;13.22;60.74;99102.59;147394;1147;104479;-84
2021/04/30 00:42:53;;;;;;;6.50;5.10;;;;;;;13.25;60.74;99104.88;147653;1147;104668;-77
2021/04/30 00:45:56;;;;;;;7.35;5.08;;;;;;;13.28;60.66;99113.35;147790;1147;104434;-77
2021/04/30 00:49:00;;;;;;;6.83;5.12;;;;;;;13.29;60.70;99119.53;147342;1148;104492;-79
2021/04/30 00:52:03;;;;;;;5.23;4.60;;;;;;;13.30;60.31;99116.69;147711;1147;104476;-78
2021/04/30 00:55:09;;;;;;;6.00;4.70;;;;;;;13.29;60.46;99117.67;147755;1148;104569;-79
2021/04/30 00:58:12;;;;;;;5.47;4.50;;;;;;;13.28;60.31;99116.03;147736;1147;104486;-76
2021/04/30 01:01:16;;;;;;;7.67;4.75;;;;;;;13.25;60.68;99118.28;147777;1147;104554;-78
2021/04/30 01:04:19;;;;;;;6.25;4.90;;;;;;;13.23;60.77;99126.50;147559;1147;104454;-79
2021/04/30 01:07:22;;;;;;;5.85;4.53;;;;;;;13.18;60.73;99133.48;147422;1147;104476;-75
2021/04/30 01:10:26;;;;;;;5.37;4.73;;;;;;;13.14;60.75;99127.69;147242;1148;104575;-81
2021/04/30 01:13:29;;;;;;;4.62;3.85;;;;;;;13.11;60.91;99136.13;147304;1148;104477;-80
2021/04/30 01:16:32;;;;;;;5.17;4.17;;;;;;;13.12;61.14;99133.23;147794;1147;104566;-79
2021/04/30 01:19:35;;;;;;;4.50;3.97;;;;;;;13.15;60.85;99129.36;147685;1148;104855;-78
2021/04/30 01:22:40;;;;;;;5.05;4.25;;;;;;;13.20;60.85;99128.75;147700;1146;104569;-77
2021/04/30 01:25:44;;;;;;;5.53;4.40;;;;;;;13.22;60.58;99124.87;147513;1147;104487;-78
2021/04/30 01:28:48;;;;;;;5.40;4.80;;;;;;;13.23;60.71;99131.86;147226;1147;104642;-79
2021/04/30 01:31:51;;;;;;;7.58;5.85;;;;;;;13.20;60.45;99126.06;147336;1148;104482;-78
2021/04/30 01:34:55;;;;;;;6.70;5.10;;;;;;;13.16;60.89;99130.99;147375;1147;104563;-77
2021/04/30 01:37:59;;;;;;;9.20;5.70;;;;;;;13.15;60.38;99132.03;147427;1145;104469;-78
2021/04/30 01:41:04;;;;;;;7.80;5.72;;;;;;;13.12;60.50;99129.73;147491;1148;104534;-82
2021/04/30 01:44:09;;;;;;;6.62;5.12;;;;;;;13.10;60.54;99126.43;147389;1148;104543;-83
2021/04/30 01:47:12;;;;;;;5.67;4.87;;;;;;;13.06;60.79;99125.17;147828;1148;104567;-86
2021/04/30 01:50:16;;;;;;;6.70;5.12;;;;;;;13.02;60.83;99124.73;147806;1147;104515;-81
2021/04/30 01:53:22;;;;;;;5.10;4.55;;;;;;;12.99;60.71;99119.80;147720;1147;104482;-80
2021/04/30 01:56:25;;;;;;;5.07;4.47;;;;;;;12.94;61.02;99123.04;147692;1147;104568;-81
2021/04/30 01:59:28;;;;;;;5.60;4.25;;;;;;;12.92;61.02;99133.13;147719;1147;104511;-82
2021/04/30 02:02:46;;;;;;;7.75;4.80;;;;;;;12.93;61.12;99137.47;147797;1146;104489;-82
2021/04/30 02:05:50;;;;;;;7.62;5.33;;;;;;;12.96;61.20;99134.38;147639;1148;104479;-81
2021/04/30 02:08:55;;;;;;;9.65;6.42;;;;;;;13.00;60.74;99132.14;147606;1147;104471;-83
2021/04/30 02:12:00;;;;;;;11.07;6.47;;;;;;;12.99;61.13;99135.86;147566;1148;104469;-83
2021/04/30 02:15:03;;;;;;;10.78;6.55;;;;;;;12.98;61.10;99144.08;147470;1147;104876;-82
2021/04/30 02:18:07;;;;;;;9.70;6.28;;;;;;;12.94;61.18;99135.61;147458;1147;105020;-81
2021/04/30 02:21:10;;;;;;;7.90;5.90;;;;;;;12.93;61.49;99137.47;147578;1147;104606;-84
2021/04/30 02:24:13;;;;;;;8.80;5.92;;;;;;;12.91;61.50;99144.02;147458;1147;104480;-78
2021/04/30 02:27:16;;;;;;;9.70;6.20;;;;;;;12.86;61.46;99144.62;147756;1147;104568;-82
2021/04/30 02:30:22;;;;;;;8.58;6.35;;;;;;;12.81;61.20;99147.04;147739;1148;104613;-78
2021/04/30 02:33:25;;;;;;;9.13;6.43;;;;;;;12.75;61.38;99145.97;147766;1147;104477;-81
2021/04/30 02:36:28;;;;;;;8.48;6.70;;;;;;;12.68;61.69;99150.47;147736;1148;104489;-80
2021/04/30 02:39:32;;;;;;;9.70;6.12;;;;;;;12.65;61.63;99144.67;147839;1147;104451;-82
2021/04/30 02:42:35;;;;;;;6.33;4.80;;;;;;;12.65;61.43;99150.02;147860;1147;104498;-84
2021/04/30 02:45:39;;;;;;;6.22;4.83;;;;;;;12.64;61.45;99140.33;147843;1146;104568;-82
2021/04/30 02:48:44;;;;;;;8.18;5.55;;;;;;;12.64;61.96;99146.50;147835;1148;104438;-81
2021/04/30 02:51:47;;;;;;;7.83;5.47;;;;;;;12.65;61.85;99150.02;147738;1147;104495;-83
2021/04/30 02:54:51;;;;;;;8.05;5.53;;;;;;;12.62;61.87;99153.89;147765;1147;104439;-81
2021/04/30 02:57:56;;;;;;;6.47;5.35;;;;;;;12.60;62.00;99149.77;147781;1147;104553;-79
2021/04/30 03:01:00;;;;;;;7.22;5.75;;;;;;;12.55;62.01;99148.50;147689;1148;104564;-80
2021/04/30 03:04:04;;;;;;;6.72;5.62;;;;;;;12.49;61.85;99151.10;147354;1147;104475;-82
2021/04/30 03:07:07;;;;;;;6.90;5.57;;;;;;;12.41;62.05;99146.71;147402;1147;104578;-80
2021/04/30 03:10:13;;;;;;;8.60;5.90;;;;;;;12.31;61.95;99154.24;147539;1147;104444;-81
2021/04/30 03:13:16;;;;;;;6.92;5.28;;;;;;;12.22;61.54;99160.73;147567;1147;104477;-80
2021/04/30 03:16:19;;;;;;;6.35;5.53;;;;;;;12.13;61.82;99162.72;147631;1147;104604;-80
2021/04/30 03:19:23;;;;;;;6.83;5.42;;;;;;;12.05;61.59;99169.02;147837;1148;105407;-80
2021/04/30 03:22:26;;;;;;;7.08;5.47;;;;;;;11.97;61.77;99177.13;147792;1147;104479;-78
2021/04/30 03:25:29;;;;;;;7.65;5.12;;;;;;;11.95;61.71;99181.83;147734;1147;104447;-79
2021/04/30 03:28:32;;;;;;;7.65;5.00;;;;;;;11.97;62.12;99179.80;147801;1147;104480;-78
2021/04/30 03:31:36;;;;;;;5.97;4.87;;;;;;;11.98;61.82;99174.27;147766;1147;104549;-79
2021/04/30 03:34:39;;;;;;;5.90;4.95;;;;;;;12.02;61.58;99177.40;147718;1147;104479;-78
2021/04/30 03:37:42;;;;;;;6.80;5.25;;;;;;;12.03;62.01;99178.22;147648;1148;104505;-78
2021/04/30 03:40:46;;;;;;;7.22;5.62;;;;;;;11.97;61.80;99175.30;147707;1147;104923;-85
2021/04/30 03:43:49;;;;;;;6.22;4.92;;;;;;;11.93;61.51;99181.20;147708;1148;104426;-81
2021/04/30 03:46:52;;;;;;;8.28;5.47;;;;;;;11.87;61.52;99192.61;147741;1147;104618;-79
2021/04/30 03:49:55;;;;;;;9.38;6.28;;;;;;;11.81;61.72;99198.72;147859;1148;104475;-77
2021/04/30 03:52:58;;;;;;;8.35;6.10;;;;;;;11.76;61.78;99194.77;147779;1147;104477;-76
2021/04/30 03:56:01;;;;;;;9.53;7.33;;;;;;;11.73;62.37;99197.80;147738;1147;104584;-78
2021/04/30 03:59:05;;;;;;;10.15;7.10;;;;;;;11.68;62.03;99197.55;147696;1147;104447;-79
2021/04/30 04:02:08;;;;;;;8.60;6.80;;;;;;;11.65;61.54;99205.10;147695;1147;104629;-78
2021/04/30 04:05:11;;;;;;;8.75;6.47;;;;;;;11.62;61.97;99202.79;147743;1147;104406;-80
2021/04/30 04:08:15;;;;;;;7.00;5.90;;;;;;;11.62;61.81;99208.13;147759;1147;104610;-81
2021/04/30 04:11:18;;;;;;;8.35;5.62;;;;;;;11.69;62.22;99215.22;147727;1147;104476;-80
2021/04/30 04:14:21;;;;;;;7.12;6.15;;;;;;;11.88;62.40;99221.02;147810;1147;104458;-77
2021/04/30 04:17:24;;;;;;;8.63;6.53;;;;;;;12.00;62.28;99216.05;147569;1147;104642;-78
2021/04/30 04:20:28;;;;;;;9.80;6.60;;;;;;;12.07;61.24;99214.28;147767;1147;104560;-77
2021/04/30 04:23:31;;;;;;;8.73;6.10;;;;;;;12.22;62.09;99219.57;147667;1147;104474;-84
2021/04/30 04:26:34;;;;;;;7.78;6.25;;;;;;;12.41;61.96;99224.30;147481;1147;104477;-79
2021/04/30 04:29:38;;;;;;;7.47;6.42;;;;;;;12.62;61.56;99225.33;147354;1148;104649;-83
2021/04/30 04:32:41;;;;;;;7.08;6.17;;;;;;;12.82;61.67;99231.70;147720;1147;104508;-79
2021/04/30 04:35:44;;;;;;;9.93;6.70;;;;;;;13.03;61.65;99228.16;147688;1147;104500;-72
2021/04/30 04:38:47;;;;;;;7.85;6.05;;;;;;;13.27;61.14;99234.09;147721;1147;104483;-75
2021/04/30 04:41:50;;;;;;;8.68;6.42;;;;;;;13.42;60.95;99236.70;147712;1147;104565;-74
2021/04/30 04:44:54;;;;;;;9.80;6.60;;;;;;;13.52;61.12;99235.31;147927;1147;104618;-77
2021/04/30 04:47:58;;;;;;;9.23;7.37;;;;;;;13.66;61.02;99238.89;147815;1147;104652;-76
2021/04/30 04:51:01;;;;;;;8.75;6.62;;;;;;;13.77;60.64;99239.37;147822;1147;104566;-79
2021/04/30 04:54:06;;;;;;;9.00;7.30;;;;;;;13.88;60.83;99236.95;147791;1147;104499;-76
2021/04/30 04:57:10;;;;;;;7.85;6.67;;;;;;;14.00;60.70;99239.88;147796;1147;104570;-78
2021/04/30 05:00:15;;;;;;;9.05;6.50;;;;;;;14.23;60.75;99238.73;147768;1147;104919;-77
2021/04/30 05:03:18;;;;;;;8.78;6.87;;;;;;;14.33;60.07;99255.27;147270;1148;104724;-78
2021/04/30 05:06:21;;;;;;;9.30;6.75;;;;;;;14.21;60.41;99262.25;147478;1145;104634;-74
2021/04/30 05:09:27;;;;;;;7.85;6.53;;;;;;;14.08;60.17;99255.80;147549;1148;104848;-75
2021/04/30 05:12:30;;;;;;;10.00;7.03;;;;;;;14.09;60.03;99262.83;147655;1147;104492;-76
2021/04/30 05:15:34;;;;;;;8.23;7.12;;;;;;;14.12;60.12;99257.05;147624;1147;104572;-76
2021/04/30 05:18:37;;;;;;;9.98;7.80;;;;;;;14.05;59.69;99266.95;147237;1148;104540;-77
2021/04/30 05:21:42;;;;;;;8.53;7.35;;;;;;;14.02;59.59;99272.69;147830;1147;104567;-79
2021/04/30 05:24:46;;;;;;;8.58;7.17;;;;;;;14.05;60.37;99264.27;147741;1147;104560;-75
2021/04/30 05:27:49;;;;;;;9.07;8.03;;;;;;;14.11;59.59;99266.14;147745;1147;104482;-77
2021/04/30 05:30:53;;;;;;;9.90;7.70;;;;;;;14.11;59.38;99273.37;147684;1147;104562;-77
2021/04/30 05:33:56;;;;;;;10.40;8.07;;;;;;;14.17;59.02;99285.16;147321;1147;104615;-77
2021/04/30 05:36:59;;;;;;;8.85;7.12;;;;;;;14.19;59.65;99275.05;147403;1147;104472;-73
2021/04/30 05:40:02;;;;;;;8.95;7.37;;;;;;;14.25;59.29;99283.11;147793;1147;104566;-73
2021/04/30 05:43:06;;;;;;;8.43;7.40;;;;;;;14.29;59.34;99283.53;147430;1147;104457;-72
2021/04/30 05:46:09;;;;;;;11.57;7.90;;;;;;;14.31;59.93;99292.21;147692;1148;104573;-73
2021/04/30 05:49:12;;;;;;;9.75;7.60;;;;;;;14.33;59.10;99290.15;147706;1147;104889;-73
2021/04/30 05:52:15;;;;;;;8.80;7.15;;;;;;;14.43;59.12;99297.82;147329;1147;104646;-73
2021/04/30 05:55:19;;;;;;;9.88;7.70;;;;;;;14.46;58.77;99302.80;147532;1147;104572;-73
2021/04/30 05:58:22;;;;;;;9.13;7.28;;;;;;;14.42;58.87;99296.18;147555;1147;104436;-74
2021/04/30 06:01:25;;;;;;;10.53;6.87;;;;;;;14.44;59.12;99305.67;147587;1146;104648;-74
2021/04/30 06:04:28;;;;;;;10.80;7.20;;;;;;;14.50;59.41;99309.41;147716;1148;104567;-74
2021/04/30 06:07:32;;;;;;;10.93;7.47;;;;;;;14.52;59.33;99302.80;147812;1147;104892;-74
2021/04/30 06:10:35;;;;;;;9.03;7.37;;;;;;;14.51;58.79;99309.22;147769;1147;104681;-73
2021/04/30 06:13:38;;;;;;;8.43;6.90;;;;;;;14.49;59.46;99316.64;147549;1147;104602;-73
2021/04/30 06:16:42;;;;;;;9.60;7.50;;;;;;;14.58;58.45;99327.23;147797;1147;104582;-73
2021/04/30 06:19:45;;;;;;;11.10;7.67;;;;;;;14.60;58.79;99325.16;147769;1148;104596;-74
2021/04/30 06:22:48;;;;;;;7.90;6.87;;;;;;;14.63;58.62;99335.52;147804;1147;104579;-74
2021/04/30 06:25:51;;;;;;;8.77;7.03;;;;;;;14.62;58.47;99336.53;147367;1148;104584;-72
2021/04/30 06:28:54;;;;;;;9.15;6.50;;;;;;;14.60;58.18;99334.04;147690;1148;104486;-74
2021/04/30 06:31:58;;;;;;;8.33;6.60;;;;;;;14.61;58.26;99340.26;147785;1147;104487;-73
2021/04/30 06:35:01;;;;;;;10.43;6.33;;;;;;;14.51;58.04;99329.84;147839;1147;104636;-73
2021/04/30 06:38:05;;;;;;;8.40;7.33;;;;;;;14.52;58.04;99337.70;147832;1147;104567;-75
2021/04/30 06:41:08;;;;;;;8.28;7.28;;;;;;;14.55;57.87;99339.17;147768;1147;104591;-74
2021/04/30 06:44:11;;;;;;;9.78;7.72;;;;;;;14.48;57.69;99349.05;147713;1147;104483;-73
2021/04/30 06:47:14;;;;;;;9.63;7.00;;;;;;;14.48;58.18;99347.19;147774;1147;104620;-73
2021/04/30 06:50:17;;;;;;;8.80;7.35;;;;;;;14.56;58.04;99354.23;147719;1148;104523;-73
2021/04/30 06:53:20;;;;;;;11.50;7.90;;;;;;;14.62;57.20;99356.14;147735;1147;104531;-73
2021/04/30 06:56:25;;;;;;;10.53;8.35;;;;;;;14.64;57.71;99350.58;147882;1147;104566;-73
2021/04/30 06:59:28;;;;;;;9.68;8.35;;;;;;;14.69;56.91;99356.18;147760;1147;104618;-74
2021/04/30 07:02:31;;;;;;;10.60;8.28;;;;;;;14.59;56.15;99359.25;147722;1147;104572;-75
2021/04/30 07:05:35;;;;;;;11.15;8.55;;;;;;;14.48;56.98;99359.79;147711;1147;104559;-74
2021/04/30 07:08:38;;;;;;;8.93;8.03;;;;;;;14.52;56.53;99361.86;147983;1148;104489;-75
2021/04/30 07:11:41;;;;;;;10.08;8.15;;;;;;;14.60;56.32;99357.38;147577;1147;104554;-73
2021/04/30 07:14:44;;;;;;;10.28;8.48;;;;;;;14.68;55.56;99366.10;147740;1148;104919;-78
2021/04/30 07:17:47;;;;;;;11.03;8.23;;;;;;;14.71;56.87;99360.31;147616;1147;104601;-84
2021/04/30 07:20:51;;;;;;;12.67;8.07;;;;;;;14.79;56.80;99364.67;147770;1148;104714;-84
2021/04/30 07:23:54;;;;;;;13.58;7.70;;;;;;;14.91;55.61;99378.33;147841;1147;104572;-80
2021/04/30 07:26:57;;;;;;;10.83;7.77;;;;;;;14.90;54.11;99366.77;147541;1147;104478;-76
2021/04/30 07:30:00;;;;;;;8.53;7.37;;;;;;;14.95;54.28;99376.07;147502;1148;104569;-77
2021/04/30 07:33:03;;;;;;;9.95;7.37;;;;;;;14.99;53.16;99371.94;147773;1147;104560;-76
2021/04/30 07:36:07;;;;;;;13.60;8.00;;;;;;;14.97;54.11;99374.01;147754;1147;104761;-76
2021/04/30 07:39:11;;;;;;;9.73;8.30;;;;;;;15.05;52.36;99376.50;147767;1146;104479;-81
2021/04/30 07:42:14;;;;;;;8.95;7.22;;;;;;;15.21;53.88;99389.56;147762;1147;104624;-77
2021/04/30 07:45:18;;;;;;;7.90;6.60;;;;;;;15.45;51.45;99388.16;147193;1148;104492;-83
2021/04/30 07:48:21;;;;;;;8.65;7.08;;;;;;;15.61;49.22;99376.15;147691;1147;104675;-75
2021/04/30 07:51:24;;;;;;;8.68;6.60;;;;;;;15.80;51.22;99379.05;147859;1147;104556;-76
2021/04/30 07:54:27;;;;;;;7.72;6.90;;;;;;;15.99;48.76;99391.64;148058;1147;104712;-77
2021/04/30 07:57:31;;;;;;;10.03;7.60;;;;;;;16.10;50.23;99387.48;147165;1147;104633;-76
2021/04/30 08:00:34;;;;;;;8.58;7.25;;;;;;;16.17;49.02;99382.92;147503;1147;104556;-78
2021/04/30 08:03:38;;;;;;;9.50;8.05;;;;;;;16.15;48.32;99393.08;147440;1147;104487;-78
2021/04/30 08:06:41;;;;;;;10.43;7.80;;;;;;;16.03;49.49;99384.83;147290;1147;104607;-76
2021/04/30 08:09:45;;;;;;;10.20;7.27;;;;;;;15.95;49.86;99390.41;147417;1147;104502;-79
2021/04/30 08:12:48;;;;;;;9.18;7.53;;;;;;;15.70;48.22;99396.42;147711;1147;104568;-76
2021/04/30 08:15:51;;;;;;;9.63;8.03;;;;;;;15.71;49.66;99391.86;147748;1147;104572;-78
2021/04/30 08:18:55;;;;;;;10.65;7.92;;;;;;;15.70;49.52;99401.80;147654;1147;105026;-74
2021/04/30 08:21:58;;;;;;;9.50;8.03;;;;;;;15.73;49.41;99400.58;147672;1147;104735;-76
2021/04/30 08:25:01;;;;;;;14.60;10.63;;;;;;;15.74;48.80;99399.53;147517;1147;104509;-76
2021/04/30 08:28:05;;;;;;;10.80;9.08;;;;;;;15.65;48.97;99409.66;147686;1147;104855;-77
2021/04/30 08:31:08;;;;;;;11.00;9.47;;;;;;;15.69;47.88;99405.52;147637;1148;104489;-77
2021/04/30 08:34:12;;;;;;;12.80;10.15;;;;;;;15.80;49.45;99395.19;147547;1147;104652;-77
2021/04/30 08:37:15;;;;;;;14.05;9.88;;;;;;;15.97;49.59;99401.78;147675;1147;104608;-76
2021/04/30 08:40:18;;;;;;;10.28;9.05;;;;;;;16.07;48.11;99407.59;147532;1147;104480;-78
2021/04/30 08:43:21;;;;;;;11.05;9.20;;;;;;;16.10;47.92;99411.71;147484;1147;104458;-77
2021/04/30 08:46:24;;;;;;;10.30;9.05;;;;;;;16.08;48.11;99409.22;147407;1147;104508;-77
2021/04/30 08:49:27;;;;;;;9.95;8.18;;;;;;;16.08;48.73;99413.78;147627;1146;104572;-76
2021/04/30 08:52:31;;;;;;;11.43;9.48;;;;;;;16.13;46.92;99426.60;147588;1147;104466;-78
2021/04/30 08:55:34;;;;;;;12.73;9.00;;;;;;;15.97;45.63;99422.48;147758;1147;104578;-78
2021/04/30 08:58:39;;;;;;;11.40;9.75;;;;;;;15.78;48.04;99425.00;147510;1147;104575;-78
2021/04/30 09:01:42;;;;;;;12.60;10.23;;;;;;;15.71;48.36;99422.27;147593;1147;104470;-76
2021/04/30 09:04:46;;;;;;;11.00;9.90;;;;;;;15.66;47.65;99421.23;148074;1147;105189;-76
2021/04/30 09:07:50;;;;;;;10.83;9.67;;;;;;;15.68;46.55;99420.02;147603;1147;104611;-77
2021/04/30 09:10:56;;;;;;;10.70;9.38;;;;;;;15.63;46.86;99422.48;147525;1147;104465;-77
2021/04/30 09:14:22;;;;;;;11.73;9.50;;;;;;;15.62;47.34;99426.19;147766;1147;104454;-77
2021/04/30 09:17:27;;;;;;;14.43;9.40;;;;;;;15.67;45.69;99430.97;147619;1147;104959;-77
2021/04/30 09:20:39;;;;;;;11.10;9.18;;;;;;;15.65;44.54;99430.34;147740;1147;104444;-77
2021/04/30 09:23:44;;;;;;;10.20;8.63;;;;;;;15.44;45.83;99432.19;147769;1146;104554;-76
2021/04/30 09:26:51;;;;;;;10.70;9.10;;;;;;;15.68;47.06;99446.91;147811;1147;104898;-75
2021/04/30 09:30:13;;;;;;;12.30;8.83;;;;;;;15.66;45.43;99448.94;147907;1147;104474;-72
2021/04/30 09:33:16;;;;;;;;;;;;;;;15.88;48.00;99462.25;148120;1147;104522;-75
2021/04/30 09:36:19;;;;;;;9.18;7.72;;;;;;;16.04;46.58;99450.23;148128;1147;104555;-75
2021/04/30 09:39:22;;;;;;;8.50;6.67;;;;;;;16.16;44.70;99445.03;147333;1145;104617;-75
2021/04/30 09:42:28;;;;;;;7.20;5.75;;;;;;;16.12;41.57;99459.95;147862;1147;104572;-75
2021/04/30 09:45:32;;;;;;;8.38;7.22;;;;;;;16.14;45.60;99465.95;147904;1147;104450;-75
2021/04/30 09:48:55;;;;;;;7.50;6.70;;;;;;;16.14;44.83;99468.64;147739;1147;104597;-74
2021/04/30 09:51:58;;;;;;;9.20;6.92;;;;;;;16.10;45.40;99471.73;147784;1147;104573;-76
2021/04/30 09:55:05;;;;;;;7.60;6.70;;;;;;;16.16;41.98;99472.77;147789;1147;104467;-75
2021/04/30 09:58:21;;;;;;;8.18;7.30;;;;;;;15.97;44.08;99469.05;147789;1147;104553;-77
2021/04/30 10:01:25;;;;;;;9.33;7.83;;;;;;;16.00;45.22;99471.34;147819;1148;104477;-75
2021/04/30 10:04:31;;;;;;;9.30;7.40;;;;;;;16.26;42.72;99485.80;147845;1147;104537;-76
2021/04/30 10:07:36;;;;;;;7.87;7.07;;;;;;;16.26;46.55;99486.65;147760;1147;104481;-76
2021/04/30 10:10:39;;;;;;;11.15;8.40;;;;;;;16.68;45.19;99486.34;147633;1148;104521;-77
2021/04/30 10:13:43;;;;;;;9.43;7.97;;;;;;;16.63;40.77;99486.16;147687;1147;104938;-78
2021/04/30 10:16:47;;;;;;;17.03;8.30;;;;;;;16.48;44.24;99489.91;147717;1147;104484;-83
2021/04/30 10:19:53;;;;;;;8.70;7.80;;;;;;;16.38;41.32;99486.83;147330;1147;104528;-81
2021/04/30 10:22:57;;;;;;;8.63;7.77;;;;;;;16.32;42.73;99492.21;147562;1147;104444;-84
2021/04/30 10:26:04;;;;;;;9.25;8.35;;;;;;;16.22;42.05;99506.10;147517;1148;104550;-82
2021/04/30 10:29:11;;;;;;;9.28;8.18;;;;;;;16.13;43.06;99500.12;147497;1147;104565;-84
2021/04/30 10:32:16;;;;;;;9.15;8.18;;;;;;;16.08;42.40;99506.11;147872;1147;104499;-81
2021/04/30 10:35:27;;;;;;;9.00;8.10;;;;;;;16.28;42.71;99507.95;147853;1147;104438;-83
2021/04/30 10:38:33;;;;;;;9.13;7.93;;;;;;;16.50;41.26;99513.95;147959;1147;104512;-82
2021/04/30 10:41:38;;;;;;;9.18;8.25;;;;;;;16.72;41.41;99501.03;147708;1147;104565;-81
2021/04/30 10:44:44;;;;;;;9.30;7.97;;;;;;;16.78;41.69;99500.21;147644;1147;104568;-81
2021/04/30 10:48:06;;;;;;;12.60;10.20;;;;;;;16.86;40.08;99500.00;147390;1147;104531;-82
2021/04/30 10:51:12;;;;;;;17.63;15.83;;;;;;;17.06;40.92;99491.83;147837;1147;104500;-82
2021/04/30 10:54:27;;;;;;;9.43;8.30;;;;;;;17.10;39.67;99504.88;147801;1147;104617;-82
2021/04/30 10:57:45;;;;;;;8.60;7.80;;;;;;;16.72;41.35;99505.60;147483;1147;104547;-82
2021/04/30 11:00:48;;;;;;;10.35;8.73;;;;;;;16.39;41.01;99501.94;147747;1147;104569;-83
2021/04/30 11:04:18;;;;;;;10.85;8.60;;;;;;;16.38;40.90;99505.68;147338;1147;104467;-82
2021/04/30 11:07:23;;;;;;;11.15;8.85;;;;;;;16.37;41.91;99509.39;147240;1148;104517;-82
2021/04/30 11:10:45;;;;;;;13.40;11.17;;;;;;;16.43;40.97;99508.55;147719;1147;104519;-82
2021/04/30 11:14:20;;;;;;;9.53;8.50;;;;;;;16.39;40.68;99514.58;147387;1147;104609;-78
2021/04/30 11:17:46;;;;;;;9.03;7.92;;;;;;;16.18;40.86;99513.76;147717;1147;104470;-84
2021/04/30 11:21:06;;;;;;;8.83;7.92;;;;;;;16.10;39.39;99511.28;147481;1147;104572;-83
2021/04/30 11:24:37;;;;;;;9.03;8.15;;;;;;;16.43;40.89;99513.94;147773;1147;105107;-81
2021/04/30 11:27:40;;;;;;;10.18;8.60;;;;;;;16.54;40.40;99511.66;147580;1147;104524;-82
2021/04/30 11:30:59;;;;;;;9.75;7.70;;;;;;;16.54;39.08;99517.87;147566;1147;104602;-81
2021/04/30 11:34:20;;;;;;;10.68;9.20;;;;;;;16.71;39.83;99526.34;147880;1148;104594;-82
2021/04/30 11:37:39;;;;;;;9.63;8.57;;;;;;;16.39;39.56;99528.04;147941;1147;104471;-78
2021/04/30 11:40:56;;;;;;;9.68;8.65;;;;;;;16.53;39.88;99521.59;147721;1147;104445;-77
2021/04/30 11:43:59;;;;;;;10.85;9.75;;;;;;;16.52;40.66;99537.98;147669;1147;104450;-77
2021/04/30 11:47:04;;;;;;;10.10;9.08;;;;;;;16.61;40.77;99542.08;147431;1147;104606;-77
2021/04/30 11:50:11;;;;;;;10.53;9.50;;;;;;;16.54;40.57;99538.59;147796;1147;104527;-75
2021/04/30 11:53:15;;;;;;;10.80;9.70;;;;;;;16.36;40.87;99545.45;147321;1146;104646;-78
2021/04/30 11:56:18;;;;;;;13.30;9.97;;;;;;;16.31;40.89;99545.23;147538;1147;104465;-77
2021/04/30 11:59:21;;;;;;;11.53;9.88;;;;;;;16.24;40.59;99553.33;147761;1147;104575;-81
2021/04/30 12:02:28;;;;;;;10.90;9.78;;;;;;;15.88;39.41;99540.27;147911;1147;104532;-78
2021/04/30 12:05:31;;;;;;;10.15;9.13;;;;;;;15.85;40.60;99554.11;147619;1148;104528;-78
2021/04/30 12:08:34;;;;;;;10.15;9.13;;;;;;;15.86;40.56;99550.41;148015;1147;104435;-80
2021/04/30 12:11:38;;;;;;;12.07;9.50;;;;;;;15.77;41.01;99554.31;148322;1147;104497;-84
2021/04/30 12:14:49;;;;;;;10.25;9.25;;;;;;;15.68;40.47;99570.62;147685;1147;104447;-77
2021/04/30 12:17:52;;;;;;;;;;;;;;;15.23;41.01;99562.19;147897;1147;104436;-81
2021/04/30 12:20:55;;;;;;;11.80;9.57;;;;;;;15.01;41.46;99558.79;147966;1147;104475;-80
2021/04/30 12:23:59;;;;;;;12.00;9.37;;;;;;;15.09;41.76;99561.30;147945;1147;104584;-74
2021/04/30 12:27:02;;;;;;;12.55;10.23;;;;;;;15.19;41.36;99560.11;147646;1147;104555;-79
2021/04/30 12:30:08;;;;;;;10.90;9.80;;;;;;;15.03;41.67;99570.16;147751;1148;104447;-82
2021/04/30 12:33:28;;;;;;;12.10;10.80;;;;;;;14.75;41.95;99561.33;147689;1147;104527;-78
2021/04/30 12:36:32;;;;;;;13.95;9.95;;;;;;;14.79;41.97;99549.98;147350;1147;104530;-79
2021/04/30 12:39:36;;;;;;;12.33;10.23;;;;;;;14.85;42.30;99548.36;147755;1147;104608;-80
2021/04/30 12:42:50;;;;;;;11.70;10.45;;;;;;;14.70;42.46;99553.84;148934;1146;104365;-80
2021/04/30 12:45:54;;;;;;;11.10;10.00;;;;;;;14.79;41.32;99570.64;148014;1147;104680;-78
2021/04/30 12:48:59;;;;;;;14.37;11.60;;;;;;;14.67;42.31;99559.63;148055;1147;104614;-78
2021/04/30 12:52:05;;;;;;;12.30;11.03;;;;;;;14.66;41.97;99560.63;148071;1147;104452;-78
2021/04/30 12:55:30;;;;;;;12.88;10.45;;;;;;;14.69;42.53;99563.77;147820;1147;104423;-80
2021/04/30 12:58:33;;;;;;;11.93;10.57;;;;;;;14.89;42.41;99558.50;147893;1147;104450;-81
2021/04/30 13:01:38;;;;;;;10.55;9.45;;;;;;;15.06;42.43;99566.23;147901;1148;104465;-79
2021/04/30 13:04:46;;;;;;;11.55;10.35;;;;;;;15.07;41.78;99551.79;148068;1147;104515;-81
2021/04/30 13:07:51;;;;;;;11.38;10.05;;;;;;;15.08;42.13;99558.80;148233;1147;104474;-80
2021/04/30 13:11:03;;;;;;;11.33;9.90;;;;;;;14.94;40.97;99551.72;147956;1147;104365;-75
2021/04/30 13:14:07;;;;;;;10.90;9.80;;;;;;;14.94;42.03;99570.53;147895;1147;104515;-79
2021/04/30 13:17:19;;;;;;;10.35;9.25;;;;;;;14.87;40.97;99562.41;148558;1147;104471;-77
2021/04/30 13:20:26;;;;;;;11.38;9.23;;;;;;;14.91;41.50;99563.67;148407;1147;104994;-78
2021/04/30 13:23:35;;;;;;;11.35;8.80;;;;;;;14.88;40.80;99572.14;148181;1147;104569;-77
2021/04/30 13:26:38;;;;;;;10.07;8.97;;;;;;;14.92;41.51;99560.80;148053;1148;104564;-76
2021/04/30 13:29:43;;;;;;;8.83;7.92;;;;;;;15.06;41.94;99579.67;147768;1147;104471;-76
2021/04/30 13:32:47;;;;;;;11.57;9.53;;;;;;;15.08;41.44;99583.81;149218;1147;104451;-76
2021/04/30 13:35:53;;;;;;;9.25;8.35;;;;;;;15.05;41.11;99569.94;148098;1147;104745;-78
2021/04/30 13:39:00;;;;;;;12.43;9.35;;;;;;;15.01;41.32;99568.69;147500;1147;104572;-77
2021/04/30 13:42:10;;;;;;;10.90;9.73;;;;;;;15.04;41.34;99569.12;147752;1147;104554;-77
2021/04/30 13:45:15;;;;;;;11.00;9.10;;;;;;;15.08;41.54;99573.06;147811;1148;104566;-76
2021/04/30 13:48:26;;;;;;;10.23;9.13;;;;;;;15.11;41.51;99569.17;148070;1147;104566;-77
2021/04/30 13:51:29;;;;;;;9.78;8.78;;;;;;;15.09;41.40;99561.30;147743;1147;104954;-78
2021/04/30 13:54:33;;;;;;;10.57;9.03;;;;;;;15.13;41.37;99569.80;148133;1147;104474;-77
2021/04/30 13:57:36;;;;;;;10.85;8.80;;;;;;;15.06;42.25;99582.36;147050;1148;104527;-74
2021/04/30 14:00:39;;;;;;;10.00;8.78;;;;;;;14.84;41.95;99587.83;147207;1148;104484;-75
2021/04/30 14:03:42;;;;;;;10.30;8.70;;;;;;;14.75;42.78;99588.18;147255;1147;104665;-84
2021/04/30 14:06:45;;;;;;;9.40;8.35;;;;;;;14.68;43.20;99593.48;147713;1147;104477;-83